Terminal Aerodrome Forecast
Issued by NWS Wilmington, NC

Home | Current Version | Previous Version | Text Only | Print | Product List | Glossary On
Versions: 1 2 3 4 5 6 7 8 9 10 11 12 13 14 15 16 17 18 19 20
513
FTUS42 KILM 262334
TAFLBT
TAF
KLBT 262334Z 2700/2724 VRB02KT P6SM VCSH SCT020 BKN200
     FM271000 03002KT 2SM BR FEW004 BKN120
     FM271400 09003KT P6SM VCSH FEW050 BKN200
     FM271700 15004KT P6SM VCSH SCT050 BKN100=

USA.gov is the U.S. government's official web portal to all federal, state and local government web resources and services.